sensor_id;sensor_type;location;lat;lon;timestamp;P1;durP1;ratioP1;P2;durP2;ratioP2
60973;SDS011;46846;51.528;5.076;2023-07-20T00:00:12;325.40;;;308.92;;
60973;SDS011;46846;51.528;5.076;2023-07-20T00:02:39;324.75;;;308.40;;
60973;SDS011;46846;51.528;5.076;2023-07-20T00:05:04;324.67;;;308.17;;
60973;SDS011;46846;51.528;5.076;2023-07-20T00:07:31;332.90;;;316.02;;
60973;SDS011;46846;51.528;5.076;2023-07-20T00:09:56;315.42;;;299.65;;
60973;SDS011;46846;51.528;5.076;2023-07-20T00:12:22;324.80;;;308.30;;
60973;SDS011;46846;51.528;5.076;2023-07-20T00:14:47;330.38;;;313.77;;
60973;SDS011;46846;51.528;5.076;2023-07-20T00:17:12;326.00;;;309.58;;
60973;SDS011;46846;51.528;5.076;2023-07-20T00:19:38;324.58;;;308.00;;
60973;SDS011;46846;51.528;5.076;2023-07-20T00:22:03;327.85;;;311.33;;
60973;SDS011;46846;51.528;5.076;2023-07-20T00:24:30;319.85;;;303.23;;
60973;SDS011;46846;51.528;5.076;2023-07-20T00:26:55;343.92;;;326.75;;
60973;SDS011;46846;51.528;5.076;2023-07-20T00:29:21;327.30;;;310.60;;
60973;SDS011;46846;51.528;5.076;2023-07-20T00:31:46;321.25;;;304.73;;
60973;SDS011;46846;51.528;5.076;2023-07-20T00:34:12;321.33;;;305.00;;
60973;SDS011;46846;51.528;5.076;2023-07-20T00:36:37;330.98;;;314.50;;
60973;SDS011;46846;51.528;5.076;2023-07-20T00:39:03;320.20;;;304.15;;
60973;SDS011;46846;51.528;5.076;2023-07-20T00:41:28;313.08;;;297.27;;
60973;SDS011;46846;51.528;5.076;2023-07-20T00:43:54;309.38;;;293.70;;
60973;SDS011;46846;51.528;5.076;2023-07-20T00:46:22;322.83;;;306.70;;
60973;SDS011;46846;51.528;5.076;2023-07-20T00:48:48;324.02;;;307.13;;
60973;SDS011;46846;51.528;5.076;2023-07-20T00:51:13;316.92;;;300.80;;
60973;SDS011;46846;51.528;5.076;2023-07-20T00:53:39;313.95;;;298.10;;
60973;SDS011;46846;51.528;5.076;2023-07-20T00:56:05;318.85;;;302.65;;
60973;SDS011;46846;51.528;5.076;2023-07-20T00:58:32;321.73;;;305.33;;
60973;SDS011;46846;51.528;5.076;2023-07-20T01:00:57;322.38;;;306.08;;
60973;SDS011;46846;51.528;5.076;2023-07-20T01:03:23;317.55;;;301.60;;
60973;SDS011;46846;51.528;5.076;2023-07-20T01:05:51;318.77;;;302.48;;
60973;SDS011;46846;51.528;5.076;2023-07-20T01:11:06;321.33;;;305.10;;
60973;SDS011;46846;51.528;5.076;2023-07-20T01:13:38;301.88;;;286.77;;
60973;SDS011;46846;51.528;5.076;2023-07-20T01:16:04;325.20;;;308.83;;
60973;SDS011;46846;51.528;5.076;2023-07-20T01:18:30;318.88;;;302.42;;
60973;SDS011;46846;51.528;5.076;2023-07-20T01:20:58;312.90;;;297.05;;
60973;SDS011;46846;51.528;5.076;2023-07-20T01:32:07;316.23;;;300.55;;
60973;SDS011;46846;51.528;5.076;2023-07-20T01:34:35;306.42;;;290.75;;
60973;SDS011;46846;51.528;5.076;2023-07-20T01:37:02;306.50;;;290.85;;
60973;SDS011;46846;51.528;5.076;2023-07-20T01:39:28;315.08;;;299.27;;
60973;SDS011;46846;51.528;5.076;2023-07-20T01:41:54;318.58;;;302.75;;
60973;SDS011;46846;51.528;5.076;2023-07-20T01:44:20;324.40;;;308.10;;
60973;SDS011;46846;51.528;5.076;2023-07-20T01:46:45;317.85;;;301.98;;
60973;SDS011;46846;51.528;5.076;2023-07-20T01:49:11;316.95;;;301.17;;
60973;SDS011;46846;51.528;5.076;2023-07-20T01:51:36;312.98;;;297.10;;
60973;SDS011;46846;51.528;5.076;2023-07-20T01:54:02;320.80;;;304.77;;
60973;SDS011;46846;51.528;5.076;2023-07-20T01:56:27;297.70;;;282.70;;
60973;SDS011;46846;51.528;5.076;2023-07-20T01:58:53;312.75;;;297.08;;
60973;SDS011;46846;51.528;5.076;2023-07-20T02:01:18;306.80;;;291.40;;
60973;SDS011;46846;51.528;5.076;2023-07-20T02:03:43;312.40;;;296.10;;
60973;SDS011;46846;51.528;5.076;2023-07-20T02:06:09;314.65;;;298.73;;
60973;SDS011;46846;51.528;5.076;2023-07-20T02:08:34;303.23;;;288.00;;
60973;SDS011;46846;51.528;5.076;2023-07-20T02:11:00;321.20;;;304.80;;
60973;SDS011;46846;51.528;5.076;2023-07-20T02:13:25;314.23;;;298.40;;
60973;SDS011;46846;51.528;5.076;2023-07-20T02:15:50;306.30;;;290.60;;
60973;SDS011;46846;51.528;5.076;2023-07-20T02:18:16;308.05;;;292.50;;
60973;SDS011;46846;51.528;5.076;2023-07-20T02:20:41;323.27;;;306.95;;
60973;SDS011;46846;51.528;5.076;2023-07-20T02:23:07;318.42;;;302.50;;
60973;SDS011;46846;51.528;5.076;2023-07-20T02:25:32;326.92;;;310.15;;
60973;SDS011;46846;51.528;5.076;2023-07-20T02:27:58;311.85;;;296.30;;
60973;SDS011;46846;51.528;5.076;2023-07-20T02:30:23;306.58;;;291.20;;
60973;SDS011;46846;51.528;5.076;2023-07-20T02:32:49;319.85;;;303.88;;
60973;SDS011;46846;51.528;5.076;2023-07-20T02:35:15;326.33;;;309.63;;
60973;SDS011;46846;51.528;5.076;2023-07-20T02:37:40;317.35;;;301.25;;
60973;SDS011;46846;51.528;5.076;2023-07-20T02:40:06;301.58;;;285.92;;
60973;SDS011;46846;51.528;5.076;2023-07-20T02:42:32;307.63;;;292.08;;
60973;SDS011;46846;51.528;5.076;2023-07-20T02:44:58;307.52;;;291.65;;
60973;SDS011;46846;51.528;5.076;2023-07-20T02:47:23;310.02;;;294.33;;
60973;SDS011;46846;51.528;5.076;2023-07-20T02:49:49;315.55;;;299.52;;
60973;SDS011;46846;51.528;5.076;2023-07-20T02:52:14;317.42;;;301.42;;
60973;SDS011;46846;51.528;5.076;2023-07-20T02:54:40;306.48;;;291.02;;
60973;SDS011;46846;51.528;5.076;2023-07-20T02:57:05;307.23;;;291.67;;
60973;SDS011;46846;51.528;5.076;2023-07-20T02:59:31;308.45;;;292.92;;
60973;SDS011;46846;51.528;5.076;2023-07-20T03:01:56;301.70;;;286.52;;
60973;SDS011;46846;51.528;5.076;2023-07-20T03:04:22;307.05;;;291.48;;
60973;SDS011;46846;51.528;5.076;2023-07-20T03:06:50;310.17;;;294.40;;
60973;SDS011;46846;51.528;5.076;2023-07-20T03:09:16;300.10;;;284.90;;
60973;SDS011;46846;51.528;5.076;2023-07-20T03:11:41;306.83;;;291.15;;
60973;SDS011;46846;51.528;5.076;2023-07-20T03:14:06;294.58;;;279.52;;
60973;SDS011;46846;51.528;5.076;2023-07-20T03:16:32;296.23;;;281.00;;
60973;SDS011;46846;51.528;5.076;2023-07-20T03:18:59;303.05;;;287.83;;
60973;SDS011;46846;51.528;5.076;2023-07-20T03:21:28;305.95;;;290.20;;
60973;SDS011;46846;51.528;5.076;2023-07-20T03:23:54;305.05;;;289.33;;
60973;SDS011;46846;51.528;5.076;2023-07-20T03:26:20;297.38;;;282.17;;
60973;SDS011;46846;51.528;5.076;2023-07-20T03:28:45;282.45;;;268.17;;
60973;SDS011;46846;51.528;5.076;2023-07-20T03:31:11;313.77;;;297.77;;
60973;SDS011;46846;51.528;5.076;2023-07-20T03:33:36;302.73;;;287.23;;
60973;SDS011;46846;51.528;5.076;2023-07-20T03:36:02;295.33;;;280.33;;
60973;SDS011;46846;51.528;5.076;2023-07-20T03:38:27;320.45;;;304.50;;
60973;SDS011;46846;51.528;5.076;2023-07-20T03:40:54;295.45;;;280.33;;
60973;SDS011;46846;51.528;5.076;2023-07-20T03:43:23;306.70;;;290.70;;
60973;SDS011;46846;51.528;5.076;2023-07-20T03:45:50;291.02;;;276.13;;
60973;SDS011;46846;51.528;5.076;2023-07-20T03:48:17;313.48;;;297.55;;
60973;SDS011;46846;51.528;5.076;2023-07-20T03:50:46;314.65;;;298.63;;
60973;SDS011;46846;51.528;5.076;2023-07-20T03:53:13;307.38;;;291.65;;
60973;SDS011;46846;51.528;5.076;2023-07-20T03:55:40;299.65;;;284.48;;
60973;SDS011;46846;51.528;5.076;2023-07-20T03:58:09;307.15;;;291.23;;
60973;SDS011;46846;51.528;5.076;2023-07-20T04:00:34;307.48;;;291.92;;
60973;SDS011;46846;51.528;5.076;2023-07-20T04:03:00;309.77;;;294.17;;
60973;SDS011;46846;51.528;5.076;2023-07-20T04:05:26;294.73;;;279.90;;
60973;SDS011;46846;51.528;5.076;2023-07-20T04:07:51;295.10;;;280.20;;
60973;SDS011;46846;51.528;5.076;2023-07-20T04:10:20;294.65;;;279.70;;
60973;SDS011;46846;51.528;5.076;2023-07-20T04:12:45;297.33;;;282.33;;
60973;SDS011;46846;51.528;5.076;2023-07-20T04:15:12;288.90;;;274.40;;
60973;SDS011;46846;51.528;5.076;2023-07-20T04:17:38;294.35;;;279.65;;
60973;SDS011;46846;51.528;5.076;2023-07-20T04:20:04;304.85;;;289.65;;
60973;SDS011;46846;51.528;5.076;2023-07-20T04:22:31;298.27;;;282.73;;
60973;SDS011;46846;51.528;5.076;2023-07-20T04:24:56;314.05;;;298.25;;
60973;SDS011;46846;51.528;5.076;2023-07-20T04:27:22;292.42;;;277.73;;
60973;SDS011;46846;51.528;5.076;2023-07-20T04:29:47;290.90;;;276.15;;
60973;SDS011;46846;51.528;5.076;2023-07-20T04:32:12;295.40;;;280.25;;
60973;SDS011;46846;51.528;5.076;2023-07-20T04:34:38;289.30;;;274.50;;
60973;SDS011;46846;51.528;5.076;2023-07-20T04:37:04;295.88;;;281.02;;
60973;SDS011;46846;51.528;5.076;2023-07-20T04:39:30;287.75;;;273.30;;
60973;SDS011;46846;51.528;5.076;2023-07-20T04:41:55;297.23;;;282.33;;
60973;SDS011;46846;51.528;5.076;2023-07-20T04:44:21;287.05;;;272.63;;
60973;SDS011;46846;51.528;5.076;2023-07-20T04:46:46;292.27;;;277.63;;
60973;SDS011;46846;51.528;5.076;2023-07-20T04:49:12;283.83;;;269.70;;
60973;SDS011;46846;51.528;5.076;2023-07-20T04:51:38;306.38;;;291.17;;
60973;SDS011;46846;51.528;5.076;2023-07-20T04:54:04;306.02;;;290.75;;
60973;SDS011;46846;51.528;5.076;2023-07-20T04:56:29;303.23;;;288.15;;
60973;SDS011;46846;51.528;5.076;2023-07-20T04:58:55;285.30;;;271.00;;
60973;SDS011;46846;51.528;5.076;2023-07-20T05:01:20;295.52;;;280.70;;
60973;SDS011;46846;51.528;5.076;2023-07-20T05:03:46;307.38;;;292.00;;
60973;SDS011;46846;51.528;5.076;2023-07-20T05:06:11;295.27;;;280.40;;
60973;SDS011;46846;51.528;5.076;2023-07-20T05:08:37;296.27;;;281.50;;
60973;SDS011;46846;51.528;5.076;2023-07-20T05:11:04;303.75;;;288.65;;
60973;SDS011;46846;51.528;5.076;2023-07-20T05:13:29;295.20;;;280.38;;
60973;SDS011;46846;51.528;5.076;2023-07-20T05:15:55;297.40;;;282.23;;
60973;SDS011;46846;51.528;5.076;2023-07-20T05:18:20;288.52;;;274.08;;
60973;SDS011;46846;51.528;5.076;2023-07-20T05:20:46;275.25;;;261.42;;
60973;SDS011;46846;51.528;5.076;2023-07-20T05:23:12;296.27;;;281.42;;
60973;SDS011;46846;51.528;5.076;2023-07-20T05:25:38;290.05;;;275.52;;
60973;SDS011;46846;51.528;5.076;2023-07-20T05:28:03;291.25;;;276.70;;
60973;SDS011;46846;51.528;5.076;2023-07-20T05:30:28;293.23;;;278.65;;
60973;SDS011;46846;51.528;5.076;2023-07-20T05:32:54;305.70;;;290.52;;
60973;SDS011;46846;51.528;5.076;2023-07-20T05:35:20;303.65;;;288.52;;
60973;SDS011;46846;51.528;5.076;2023-07-20T05:37:45;287.50;;;273.10;;
60973;SDS011;46846;51.528;5.076;2023-07-20T05:40:12;288.35;;;273.60;;
60973;SDS011;46846;51.528;5.076;2023-07-20T05:42:41;288.42;;;273.90;;
60973;SDS011;46846;51.528;5.076;2023-07-20T05:45:06;288.92;;;274.55;;
60973;SDS011;46846;51.528;5.076;2023-07-20T05:47:32;296.02;;;281.38;;
60973;SDS011;46846;51.528;5.076;2023-07-20T05:49:57;300.15;;;285.27;;
60973;SDS011;46846;51.528;5.076;2023-07-20T05:52:23;290.45;;;276.02;;
60973;SDS011;46846;51.528;5.076;2023-07-20T05:54:48;290.88;;;276.30;;
60973;SDS011;46846;51.528;5.076;2023-07-20T05:57:13;289.90;;;275.42;;
60973;SDS011;46846;51.528;5.076;2023-07-20T05:59:39;280.08;;;266.08;;
60973;SDS011;46846;51.528;5.076;2023-07-20T06:02:08;304.55;;;289.38;;
60973;SDS011;46846;51.528;5.076;2023-07-20T06:04:34;296.85;;;281.92;;
60973;SDS011;46846;51.528;5.076;2023-07-20T06:06:59;286.02;;;271.75;;
60973;SDS011;46846;51.528;5.076;2023-07-20T06:09:25;293.40;;;278.80;;
60973;SDS011;46846;51.528;5.076;2023-07-20T06:11:52;308.88;;;293.33;;
60973;SDS011;46846;51.528;5.076;2023-07-20T06:14:17;279.92;;;266.02;;
60973;SDS011;46846;51.528;5.076;2023-07-20T06:16:43;292.50;;;278.05;;
60973;SDS011;46846;51.528;5.076;2023-07-20T06:19:09;285.92;;;271.70;;
60973;SDS011;46846;51.528;5.076;2023-07-20T06:21:37;282.98;;;268.88;;
60973;SDS011;46846;51.528;5.076;2023-07-20T06:24:03;293.02;;;278.40;;
60973;SDS011;46846;51.528;5.076;2023-07-20T06:26:28;297.40;;;282.70;;
60973;SDS011;46846;51.528;5.076;2023-07-20T06:28:55;283.67;;;269.58;;
60973;SDS011;46846;51.528;5.076;2023-07-20T06:31:21;289.75;;;275.27;;
60973;SDS011;46846;51.528;5.076;2023-07-20T06:33:46;294.73;;;280.08;;
60973;SDS011;46846;51.528;5.076;2023-07-20T06:36:11;285.50;;;271.35;;
60973;SDS011;46846;51.528;5.076;2023-07-20T06:38:37;303.52;;;288.55;;
60973;SDS011;46846;51.528;5.076;2023-07-20T06:41:02;287.90;;;273.67;;
60973;SDS011;46846;51.528;5.076;2023-07-20T06:43:28;287.40;;;273.05;;
60973;SDS011;46846;51.528;5.076;2023-07-20T06:45:53;285.48;;;271.23;;
60973;SDS011;46846;51.528;5.076;2023-07-20T06:48:19;282.00;;;267.95;;
60973;SDS011;46846;51.528;5.076;2023-07-20T06:50:45;286.98;;;272.50;;
60973;SDS011;46846;51.528;5.076;2023-07-20T06:53:10;307.67;;;292.48;;
60973;SDS011;46846;51.528;5.076;2023-07-20T06:55:36;306.67;;;291.30;;
60973;SDS011;46846;51.528;5.076;2023-07-20T06:58:01;296.27;;;281.65;;
60973;SDS011;46846;51.528;5.076;2023-07-20T07:00:27;299.20;;;284.38;;
60973;SDS011;46846;51.528;5.076;2023-07-20T07:02:52;294.75;;;280.17;;
60973;SDS011;46846;51.528;5.076;2023-07-20T07:05:18;299.33;;;284.50;;
60973;SDS011;46846;51.528;5.076;2023-07-20T07:07:43;300.05;;;285.15;;
60973;SDS011;46846;51.528;5.076;2023-07-20T07:10:09;292.23;;;277.75;;
60973;SDS011;46846;51.528;5.076;2023-07-20T07:12:34;303.58;;;288.52;;
60973;SDS011;46846;51.528;5.076;2023-07-20T07:15:00;301.02;;;286.13;;
60973;SDS011;46846;51.528;5.076;2023-07-20T07:17:27;298.60;;;283.80;;
60973;SDS011;46846;51.528;5.076;2023-07-20T07:19:52;293.92;;;279.38;;
60973;SDS011;46846;51.528;5.076;2023-07-20T07:22:21;290.67;;;276.27;;
60973;SDS011;46846;51.528;5.076;2023-07-20T07:24:47;313.80;;;298.25;;
60973;SDS011;46846;51.528;5.076;2023-07-20T07:27:12;312.98;;;297.52;;
60973;SDS011;46846;51.528;5.076;2023-07-20T07:29:41;302.25;;;287.35;;
60973;SDS011;46846;51.528;5.076;2023-07-20T07:32:06;308.02;;;292.80;;
60973;SDS011;46846;51.528;5.076;2023-07-20T07:34:32;297.13;;;282.48;;
60973;SDS011;46846;51.528;5.076;2023-07-20T07:36:59;299.80;;;285.02;;
60973;SDS011;46846;51.528;5.076;2023-07-20T07:39:25;297.77;;;282.95;;
60973;SDS011;46846;51.528;5.076;2023-07-20T07:41:50;303.63;;;288.65;;
60973;SDS011;46846;51.528;5.076;2023-07-20T07:44:17;299.90;;;285.05;;
60973;SDS011;46846;51.528;5.076;2023-07-20T07:46:42;315.42;;;299.92;;
60973;SDS011;46846;51.528;5.076;2023-07-20T07:49:08;298.30;;;283.52;;
60973;SDS011;46846;51.528;5.076;2023-07-20T07:51:33;298.77;;;283.95;;
60973;SDS011;46846;51.528;5.076;2023-07-20T07:53:59;320.90;;;304.35;;
60973;SDS011;46846;51.528;5.076;2023-07-20T07:56:24;307.02;;;291.90;;
60973;SDS011;46846;51.528;5.076;2023-07-20T07:58:50;301.38;;;286.52;;
60973;SDS011;46846;51.528;5.076;2023-07-20T08:01:16;314.42;;;298.77;;
60973;SDS011;46846;51.528;5.076;2023-07-20T08:03:43;296.40;;;281.73;;
60973;SDS011;46846;51.528;5.076;2023-07-20T08:06:11;314.77;;;299.17;;
60973;SDS011;46846;51.528;5.076;2023-07-20T08:08:36;311.38;;;296.08;;
60973;SDS011;46846;51.528;5.076;2023-07-20T08:11:02;309.08;;;293.83;;
60973;SDS011;46846;51.528;5.076;2023-07-20T08:13:27;306.90;;;291.60;;
60973;SDS011;46846;51.528;5.076;2023-07-20T08:15:52;318.02;;;302.40;;
60973;SDS011;46846;51.528;5.076;2023-07-20T08:18:18;314.48;;;299.00;;
60973;SDS011;46846;51.528;5.076;2023-07-20T08:20:44;317.35;;;301.70;;
60973;SDS011;46846;51.528;5.076;2023-07-20T08:23:10;311.80;;;296.45;;
60973;SDS011;46846;51.528;5.076;2023-07-20T08:25:39;305.83;;;290.52;;
60973;SDS011;46846;51.528;5.076;2023-07-20T08:28:08;308.98;;;293.67;;
60973;SDS011;46846;51.528;5.076;2023-07-20T08:30:45;312.95;;;297.55;;
60973;SDS011;46846;51.528;5.076;2023-07-20T08:33:15;311.88;;;296.45;;
60973;SDS011;46846;51.528;5.076;2023-07-20T08:35:44;311.08;;;295.75;;
60973;SDS011;46846;51.528;5.076;2023-07-20T08:38:10;338.42;;;321.85;;
60973;SDS011;46846;51.528;5.076;2023-07-20T08:40:42;336.23;;;319.67;;
60973;SDS011;46846;51.528;5.076;2023-07-20T08:43:13;312.58;;;296.42;;
60973;SDS011;46846;51.528;5.076;2023-07-20T08:45:41;324.83;;;306.65;;
60973;SDS011;46846;51.528;5.076;2023-07-20T08:48:07;315.80;;;298.98;;
60973;SDS011;46846;51.528;5.076;2023-07-20T08:50:33;321.58;;;305.42;;
60973;SDS011;46846;51.528;5.076;2023-07-20T08:53:00;338.73;;;320.15;;
60973;SDS011;46846;51.528;5.076;2023-07-20T08:55:26;324.55;;;308.20;;
60973;SDS011;46846;51.528;5.076;2023-07-20T08:57:56;314.27;;;298.02;;
60973;SDS011;46846;51.528;5.076;2023-07-20T09:00:22;333.33;;;316.80;;
60973;SDS011;46846;51.528;5.076;2023-07-20T09:02:57;344.25;;;326.77;;
60973;SDS011;46846;51.528;5.076;2023-07-20T09:05:25;324.40;;;308.35;;
60973;SDS011;46846;51.528;5.076;2023-07-20T09:07:51;328.10;;;311.45;;
60973;SDS011;46846;51.528;5.076;2023-07-20T09:10:20;321.58;;;305.63;;
60973;SDS011;46846;51.528;5.076;2023-07-20T09:12:47;327.02;;;310.83;;
60973;SDS011;46846;51.528;5.076;2023-07-20T09:15:12;337.95;;;321.35;;
60973;SDS011;46846;51.528;5.076;2023-07-20T09:17:38;340.42;;;323.48;;
60973;SDS011;46846;51.528;5.076;2023-07-20T09:20:07;344.13;;;327.23;;
60973;SDS011;46846;51.528;5.076;2023-07-20T09:22:36;334.13;;;317.63;;
60973;SDS011;46846;51.528;5.076;2023-07-20T09:27:47;342.15;;;325.05;;
60973;SDS011;46846;51.528;5.076;2023-07-20T09:30:14;340.10;;;323.27;;
60973;SDS011;46846;51.528;5.076;2023-07-20T09:32:44;342.80;;;326.00;;
60973;SDS011;46846;51.528;5.076;2023-07-20T09:35:12;333.25;;;316.70;;
60973;SDS011;46846;51.528;5.076;2023-07-20T09:37:40;345.73;;;328.65;;
60973;SDS011;46846;51.528;5.076;2023-07-20T09:40:06;348.08;;;331.02;;
60973;SDS011;46846;51.528;5.076;2023-07-20T09:42:34;339.30;;;322.52;;
60973;SDS011;46846;51.528;5.076;2023-07-20T09:45:01;345.08;;;328.17;;
60973;SDS011;46846;51.528;5.076;2023-07-20T09:47:27;337.83;;;321.23;;
60973;SDS011;46846;51.528;5.076;2023-07-20T09:50:00;350.98;;;333.83;;
60973;SDS011;46846;51.528;5.076;2023-07-20T09:52:25;340.67;;;323.63;;
60973;SDS011;46846;51.528;5.076;2023-07-20T09:54:51;343.85;;;326.75;;
60973;SDS011;46846;51.528;5.076;2023-07-20T09:57:17;354.17;;;336.83;;
60973;SDS011;46846;51.528;5.076;2023-07-20T09:59:43;369.77;;;351.25;;
60973;SDS011;46846;51.528;5.076;2023-07-20T10:02:11;345.85;;;328.77;;
60973;SDS011;46846;51.528;5.076;2023-07-20T10:04:51;356.58;;;339.00;;
60973;SDS011;46846;51.528;5.076;2023-07-20T10:07:18;355.80;;;338.45;;
60973;SDS011;46846;51.528;5.076;2023-07-20T10:09:48;362.48;;;344.58;;
60973;SDS011;46846;51.528;5.076;2023-07-20T10:12:15;345.58;;;328.55;;
60973;SDS011;46846;51.528;5.076;2023-07-20T10:14:42;351.45;;;334.25;;
60973;SDS011;46846;51.528;5.076;2023-07-20T10:17:15;363.45;;;345.45;;
60973;SDS011;46846;51.528;5.076;2023-07-20T10:19:43;373.50;;;355.25;;
60973;SDS011;46846;51.528;5.076;2023-07-20T10:22:34;353.60;;;336.30;;
60973;SDS011;46846;51.528;5.076;2023-07-20T10:25:00;352.55;;;335.10;;
60973;SDS011;46846;51.528;5.076;2023-07-20T10:27:26;350.92;;;333.67;;
60973;SDS011;46846;51.528;5.076;2023-07-20T10:29:52;346.20;;;329.25;;
60973;SDS011;46846;51.528;5.076;2023-07-20T10:32:20;370.40;;;352.33;;
60973;SDS011;46846;51.528;5.076;2023-07-20T10:34:53;359.80;;;342.08;;
60973;SDS011;46846;51.528;5.076;2023-07-20T10:40:24;372.23;;;354.03;;
60973;SDS011;46846;51.528;5.076;2023-07-20T10:42:50;353.75;;;336.48;;
60973;SDS011;46846;51.528;5.076;2023-07-20T10:45:16;368.40;;;350.40;;
60973;SDS011;46846;51.528;5.076;2023-07-20T10:47:45;350.75;;;333.58;;
60973;SDS011;46846;51.528;5.076;2023-07-20T10:50:11;352.98;;;335.67;;
60973;SDS011;46846;51.528;5.076;2023-07-20T10:52:37;358.88;;;341.25;;
60973;SDS011;46846;51.528;5.076;2023-07-20T10:55:14;358.52;;;341.00;;
60973;SDS011;46846;51.528;5.076;2023-07-20T10:57:39;357.35;;;339.88;;
60973;SDS011;46846;51.528;5.076;2023-07-20T11:00:09;349.70;;;332.55;;
60973;SDS011;46846;51.528;5.076;2023-07-20T11:07:58;353.33;;;335.67;;
60973;SDS011;46846;51.528;5.076;2023-07-20T11:10:23;360.42;;;342.83;;
60973;SDS011;46846;51.528;5.076;2023-07-20T11:13:22;355.15;;;337.52;;
60973;SDS011;46846;51.528;5.076;2023-07-20T11:15:44;367.17;;;349.23;;
60973;SDS011;46846;51.528;5.076;2023-07-20T11:18:26;367.73;;;349.77;;
60973;SDS011;46846;51.528;5.076;2023-07-20T11:20:51;358.35;;;340.83;;
60973;SDS011;46846;51.528;5.076;2023-07-20T11:23:19;368.02;;;349.80;;
60973;SDS011;46846;51.528;5.076;2023-07-20T11:25:45;364.60;;;346.77;;
60973;SDS011;46846;51.528;5.076;2023-07-20T11:28:11;354.15;;;336.65;;
60973;SDS011;46846;51.528;5.076;2023-07-20T11:30:37;373.98;;;355.67;;
60973;SDS011;46846;51.528;5.076;2023-07-20T11:33:03;355.02;;;337.55;;
60973;SDS011;46846;51.528;5.076;2023-07-20T11:35:30;363.67;;;345.75;;
60973;SDS011;46846;51.528;5.076;2023-07-20T11:37:56;373.98;;;355.67;;
60973;SDS011;46846;51.528;5.076;2023-07-20T11:40:22;360.90;;;343.20;;
60973;SDS011;46846;51.528;5.076;2023-07-20T11:42:48;355.95;;;338.48;;
60973;SDS011;46846;51.528;5.076;2023-07-20T11:45:15;371.55;;;353.40;;
60973;SDS011;46846;51.528;5.076;2023-07-20T11:47:42;383.42;;;364.73;;
60973;SDS011;46846;51.528;5.076;2023-07-20T11:50:08;374.27;;;356.05;;
60973;SDS011;46846;51.528;5.076;2023-07-20T11:52:34;366.55;;;348.63;;
60973;SDS011;46846;51.528;5.076;2023-07-20T11:55:00;367.45;;;349.50;;
60973;SDS011;46846;51.528;5.076;2023-07-20T11:57:26;378.23;;;359.83;;
60973;SDS011;46846;51.528;5.076;2023-07-20T11:59:55;356.35;;;338.83;;
60973;SDS011;46846;51.528;5.076;2023-07-20T12:02:22;366.63;;;348.70;;
60973;SDS011;46846;51.528;5.076;2023-07-20T12:04:49;361.90;;;344.10;;
60973;SDS011;46846;51.528;5.076;2023-07-20T12:07:15;373.77;;;355.55;;
60973;SDS011;46846;51.528;5.076;2023-07-20T12:09:41;374.83;;;356.52;;
60973;SDS011;46846;51.528;5.076;2023-07-20T12:12:10;369.60;;;351.45;;
60973;SDS011;46846;51.528;5.076;2023-07-20T12:14:38;374.48;;;356.20;;
60973;SDS011;46846;51.528;5.076;2023-07-20T12:17:03;371.63;;;353.08;;
60973;SDS011;46846;51.528;5.076;2023-07-20T12:19:29;382.85;;;364.23;;
60973;SDS011;46846;51.528;5.076;2023-07-20T12:21:57;384.35;;;365.60;;
60973;SDS011;46846;51.528;5.076;2023-07-20T12:24:24;367.55;;;349.40;;
60973;SDS011;46846;51.528;5.076;2023-07-20T12:26:55;376.25;;;357.80;;
60973;SDS011;46846;51.528;5.076;2023-07-20T12:29:22;383.80;;;365.13;;
60973;SDS011;46846;51.528;5.076;2023-07-20T12:31:47;371.92;;;353.75;;
60973;SDS011;46846;51.528;5.076;2023-07-20T12:34:13;380.83;;;362.27;;
60973;SDS011;46846;51.528;5.076;2023-07-20T12:36:38;373.23;;;354.83;;
60973;SDS011;46846;51.528;5.076;2023-07-20T12:39:04;374.65;;;356.38;;
60973;SDS011;46846;51.528;5.076;2023-07-20T12:41:30;370.13;;;351.88;;
60973;SDS011;46846;51.528;5.076;2023-07-20T12:43:55;371.10;;;352.95;;
60973;SDS011;46846;51.528;5.076;2023-07-20T12:46:23;371.95;;;353.80;;
60973;SDS011;46846;51.528;5.076;2023-07-20T12:48:48;377.33;;;358.75;;
60973;SDS011;46846;51.528;5.076;2023-07-20T12:51:14;368.73;;;350.63;;
60973;SDS011;46846;51.528;5.076;2023-07-20T12:53:40;371.45;;;353.20;;
60973;SDS011;46846;51.528;5.076;2023-07-20T12:56:05;366.90;;;348.23;;
60973;SDS011;46846;51.528;5.076;2023-07-20T12:58:30;362.95;;;345.20;;
60973;SDS011;46846;51.528;5.076;2023-07-20T13:00:56;358.73;;;341.23;;
60973;SDS011;46846;51.528;5.076;2023-07-20T13:03:21;370.75;;;352.67;;
60973;SDS011;46846;51.528;5.076;2023-07-20T13:05:47;370.05;;;351.98;;
60973;SDS011;46846;51.528;5.076;2023-07-20T13:08:13;367.40;;;349.35;;
60973;SDS011;46846;51.528;5.076;2023-07-20T13:10:39;366.27;;;348.38;;
60973;SDS011;46846;51.528;5.076;2023-07-20T13:13:05;359.38;;;341.73;;
60973;SDS011;46846;51.528;5.076;2023-07-20T13:15:31;371.17;;;353.08;;
60973;SDS011;46846;51.528;5.076;2023-07-20T13:17:57;362.67;;;344.83;;
60973;SDS011;46846;51.528;5.076;2023-07-20T13:20:23;370.70;;;352.55;;
60973;SDS011;46846;51.528;5.076;2023-07-20T13:22:49;370.95;;;352.90;;
60973;SDS011;46846;51.528;5.076;2023-07-20T13:25:14;377.88;;;359.45;;
60973;SDS011;46846;51.528;5.076;2023-07-20T13:27:40;375.67;;;357.42;;
60973;SDS011;46846;51.528;5.076;2023-07-20T13:30:06;369.08;;;350.95;;
60973;SDS011;46846;51.528;5.076;2023-07-20T13:32:33;381.63;;;363.02;;
60973;SDS011;46846;51.528;5.076;2023-07-20T13:34:58;364.95;;;346.92;;
60973;SDS011;46846;51.528;5.076;2023-07-20T13:37:24;379.58;;;360.98;;
60973;SDS011;46846;51.528;5.076;2023-07-20T13:39:50;364.10;;;346.27;;
60973;SDS011;46846;51.528;5.076;2023-07-20T13:42:15;376.20;;;357.63;;
60973;SDS011;46846;51.528;5.076;2023-07-20T13:44:42;377.33;;;358.80;;
60973;SDS011;46846;51.528;5.076;2023-07-20T13:47:07;373.52;;;355.30;;
60973;SDS011;46846;51.528;5.076;2023-07-20T13:49:33;385.15;;;366.05;;
60973;SDS011;46846;51.528;5.076;2023-07-20T13:51:58;387.98;;;368.77;;
60973;SDS011;46846;51.528;5.076;2023-07-20T13:54:24;381.83;;;363.02;;
60973;SDS011;46846;51.528;5.076;2023-07-20T13:56:50;364.55;;;346.67;;
60973;SDS011;46846;51.528;5.076;2023-07-20T13:59:16;360.88;;;343.23;;
60973;SDS011;46846;51.528;5.076;2023-07-20T14:01:42;387.38;;;368.23;;
60973;SDS011;46846;51.528;5.076;2023-07-20T14:04:07;364.58;;;346.60;;
60973;SDS011;46846;51.528;5.076;2023-07-20T14:06:33;376.75;;;358.40;;
60973;SDS011;46846;51.528;5.076;2023-07-20T14:08:59;376.35;;;357.98;;
60973;SDS011;46846;51.528;5.076;2023-07-20T14:11:25;383.23;;;364.35;;
60973;SDS011;46846;51.528;5.076;2023-07-20T14:13:51;373.48;;;354.88;;